createdAt,value
2019-03-30T00:00:11.732Z,7.211914
2019-03-30T00:01:11.870Z,7.191772
2019-03-30T00:02:11.992Z,7.211914
2019-03-30T00:03:12.102Z,7.181702
2019-03-30T00:04:12.234Z,7.191772
2019-03-30T00:05:12.341Z,7.191772
2019-03-30T00:06:12.355Z,7.211914
2019-03-30T00:07:12.505Z,7.191772
2019-03-30T00:08:12.615Z,7.181702
2019-03-30T00:09:12.727Z,7.211914
2019-03-30T00:10:12.847Z,7.211914
2019-03-30T00:11:12.865Z,7.211914
2019-03-30T00:12:12.966Z,7.191772
2019-03-30T00:13:13.091Z,7.181702
2019-03-30T00:14:13.086Z,7.181702
2019-03-30T00:15:13.221Z,7.151489
2019-03-30T00:16:13.182Z,7.181702
2019-03-30T00:17:13.308Z,7.151489
2019-03-30T00:18:13.420Z,7.151489
2019-03-30T00:19:13.591Z,7.151489
2019-03-30T00:20:14.632Z,7.151489
2019-03-30T00:21:13.756Z,7.141418
2019-03-30T00:22:13.862Z,7.111206
2019-03-30T00:23:13.971Z,7.111206
2019-03-30T00:24:14.083Z,7.111206
2019-03-30T00:25:14.184Z,7.111206
2019-03-30T00:26:14.180Z,7.101135
2019-03-30T00:27:14.285Z,7.080994
2019-03-30T00:28:14.450Z,7.101135
2019-03-30T00:29:14.405Z,7.080994
2019-03-30T00:30:14.523Z,7.050781
2019-03-30T00:31:14.701Z,7.070923
2019-03-30T00:32:14.820Z,7.050781
2019-03-30T00:33:14.985Z,7.050781
2019-03-30T00:34:15.102Z,7.03064
2019-03-30T00:35:15.207Z,7.010498
2019-03-30T00:36:15.358Z,7.010498
2019-03-30T00:37:15.478Z,7.03064
2019-03-30T00:38:15.613Z,7.000427
2019-03-30T00:39:15.739Z,6.970215
2019-03-30T00:40:15.881Z,7.000427
2019-03-30T00:41:15.873Z,6.970215
2019-03-30T00:42:15.995Z,6.970215
2019-03-30T00:43:16.143Z,6.960144
2019-03-30T00:44:16.127Z,6.950073
2019-03-30T00:45:16.251Z,6.929932
2019-03-30T00:46:16.263Z,6.919861
2019-03-30T00:47:16.260Z,6.929932
2019-03-30T00:48:16.277Z,6.889648
2019-03-30T00:49:16.393Z,6.869507
2019-03-30T00:50:16.454Z,6.869507
2019-03-30T00:51:16.449Z,6.849365
2019-03-30T00:52:16.575Z,6.829224
2019-03-30T00:53:16.714Z,6.819153
2019-03-30T00:54:16.847Z,6.799011
2019-03-30T00:55:16.952Z,6.768799
2019-03-30T00:56:16.998Z,6.77887
2019-03-30T00:57:17.100Z,6.748657
2019-03-30T00:58:17.217Z,6.738586
2019-03-30T00:59:17.326Z,6.718445
2019-03-30T01:00:17.449Z,6.708374
2019-03-30T01:01:17.442Z,6.698303
2019-03-30T01:02:17.588Z,6.678162
2019-03-30T01:03:17.707Z,6.668091
2019-03-30T01:04:17.840Z,6.637878
2019-03-30T01:05:17.979Z,6.617737
2019-03-30T01:06:18.119Z,6.617737
2019-03-30T01:07:18.116Z,6.587524
2019-03-30T01:08:18.123Z,6.587524
2019-03-30T01:09:18.247Z,6.557312
2019-03-30T01:10:18.376Z,6.5271
2019-03-30T01:11:18.393Z,6.5271
2019-03-30T01:12:18.389Z,6.517029
2019-03-30T01:13:18.498Z,6.517029
2019-03-30T01:14:18.645Z,6.517029
2019-03-30T01:15:18.755Z,6.496887
2019-03-30T01:16:18.921Z,6.496887
2019-03-30T01:17:19.030Z,6.466675
2019-03-30T01:18:19.144Z,6.486816
2019-03-30T01:19:19.249Z,6.456604
2019-03-30T01:20:19.388Z,6.436462
2019-03-30T01:21:19.419Z,6.426392
2019-03-30T01:22:19.541Z,6.426392
2019-03-30T01:23:19.540Z,6.386108
2019-03-30T01:24:19.661Z,6.386108
2019-03-30T01:25:19.773Z,6.355896
2019-03-30T01:26:19.940Z,6.355896
2019-03-30T01:27:20.072Z,6.376038
2019-03-30T01:28:20.189Z,6.345825
2019-03-30T01:29:20.289Z,6.335754
2019-03-30T01:30:23.160Z,6.345825
2019-03-30T01:31:20.531Z,6.335754
2019-03-30T01:32:20.593Z,6.315613
2019-03-30T01:33:21.686Z,6.315613
2019-03-30T01:34:20.832Z,6.315613
2019-03-30T01:35:20.924Z,6.315613
2019-03-30T01:36:20.932Z,6.2854
2019-03-30T01:37:21.037Z,6.305542
2019-03-30T01:38:21.151Z,6.2854
2019-03-30T01:39:21.151Z,6.27533
2019-03-30T01:40:21.262Z,6.2854
2019-03-30T01:41:21.394Z,6.305542
2019-03-30T01:42:21.497Z,6.315613
2019-03-30T01:43:21.596Z,6.335754
2019-03-30T01:44:21.697Z,6.315613
2019-03-30T01:45:21.808Z,6.315613
2019-03-30T01:46:21.932Z,6.315613
2019-03-30T01:47:22.046Z,6.315613
2019-03-30T01:48:22.149Z,6.305542
2019-03-30T01:49:22.254Z,6.305542
2019-03-30T01:50:22.346Z,6.305542
2019-03-30T01:51:22.513Z,6.27533
2019-03-30T01:52:22.440Z,6.305542
2019-03-30T01:53:22.544Z,6.27533
2019-03-30T01:54:22.665Z,6.27533
2019-03-30T01:55:22.773Z,6.27533
2019-03-30T01:56:22.893Z,6.245117
2019-03-30T01:57:22.998Z,6.224976
2019-03-30T01:58:23.097Z,6.245117
2019-03-30T01:59:23.201Z,6.245117
2019-03-30T02:00:23.309Z,6.245117
2019-03-30T02:01:23.434Z,6.224976
2019-03-30T02:02:23.559Z,6.224976
2019-03-30T02:03:23.668Z,6.224976
2019-03-30T02:04:23.801Z,6.194763
2019-03-30T02:05:23.908Z,6.194763
2019-03-30T02:06:24.037Z,6.194763
2019-03-30T02:07:24.056Z,6.194763
2019-03-30T02:08:24.169Z,6.194763
2019-03-30T02:09:24.277Z,6.194763
2019-03-30T02:10:24.387Z,6.204834
2019-03-30T02:11:24.519Z,6.194763
2019-03-30T02:12:24.619Z,6.194763
2019-03-30T02:13:24.763Z,6.194763
2019-03-30T02:14:24.893Z,6.194763
2019-03-30T02:15:24.991Z,6.174622
2019-03-30T02:16:25.146Z,6.15448
2019-03-30T02:17:25.252Z,6.15448
2019-03-30T02:18:25.329Z,6.15448
2019-03-30T02:19:25.267Z,6.15448
2019-03-30T02:20:30.730Z,6.15448
2019-03-30T02:21:25.496Z,6.134338
2019-03-30T02:22:25.604Z,6.15448
2019-03-30T02:23:25.720Z,6.104126
2019-03-30T02:24:25.872Z,6.104126
2019-03-30T02:25:25.994Z,6.094055
2019-03-30T02:26:26.103Z,6.094055
2019-03-30T02:27:26.219Z,6.073914
2019-03-30T02:28:26.326Z,6.063843
2019-03-30T02:29:26.437Z,6.053772
2019-03-30T02:30:26.544Z,6.053772
2019-03-30T02:31:26.667Z,6.013489
2019-03-30T02:32:26.784Z,5.993347
2019-03-30T02:33:26.908Z,5.983276
2019-03-30T02:34:27.006Z,5.983276
2019-03-30T02:35:27.125Z,5.983276
2019-03-30T02:36:27.269Z,5.973206
2019-03-30T02:37:27.381Z,5.973206
2019-03-30T02:38:27.512Z,5.973206
2019-03-30T02:39:27.621Z,5.953064
2019-03-30T02:40:27.634Z,5.953064
2019-03-30T02:41:27.802Z,5.942993
2019-03-30T02:42:27.813Z,5.953064
2019-03-30T02:43:27.824Z,5.953064
2019-03-30T02:44:27.932Z,5.953064
2019-03-30T02:45:28.049Z,5.953064
2019-03-30T02:46:28.174Z,5.942993
2019-03-30T02:47:28.283Z,5.942993
2019-03-30T02:48:28.285Z,5.942993
2019-03-30T02:49:28.442Z,5.942993
2019-03-30T02:50:28.660Z,5.953064
2019-03-30T02:51:29.931Z,5.942993
2019-03-30T02:52:28.696Z,5.922852
2019-03-30T02:53:28.828Z,5.942993
2019-03-30T02:54:28.998Z,5.973206
2019-03-30T02:55:28.983Z,5.953064
2019-03-30T02:56:29.109Z,5.953064
2019-03-30T02:57:29.110Z,5.973206
2019-03-30T02:58:29.256Z,5.942993
2019-03-30T02:59:29.277Z,5.953064
2019-03-30T03:00:29.409Z,5.942993
2019-03-30T03:01:29.516Z,5.953064
2019-03-30T03:02:29.550Z,5.983276
2019-03-30T03:03:29.690Z,6.02356
2019-03-30T03:04:29.821Z,6.073914
2019-03-30T03:05:29.964Z,6.174622
2019-03-30T03:06:30.092Z,6.255188
2019-03-30T03:07:30.135Z,6.315613
2019-03-30T03:08:30.270Z,6.355896
2019-03-30T03:09:30.392Z,6.426392
2019-03-30T03:10:30.518Z,6.486816
2019-03-30T03:11:30.529Z,6.517029
2019-03-30T03:12:30.538Z,6.53717
2019-03-30T03:13:30.668Z,6.53717
2019-03-30T03:14:30.802Z,6.5271
2019-03-30T03:15:30.912Z,6.517029
2019-03-30T03:16:31.051Z,6.486816
2019-03-30T03:17:31.061Z,6.456604
2019-03-30T03:18:31.187Z,6.426392
2019-03-30T03:19:31.325Z,6.436462
2019-03-30T03:20:31.463Z,6.436462
2019-03-30T03:21:31.684Z,6.426392
2019-03-30T03:22:31.606Z,6.40625
2019-03-30T03:23:32.758Z,6.376038
2019-03-30T03:24:31.901Z,6.355896
2019-03-30T03:25:32.054Z,6.345825
2019-03-30T03:26:32.082Z,6.335754
2019-03-30T03:27:32.076Z,6.345825
2019-03-30T03:28:32.228Z,6.376038
2019-03-30T03:29:32.332Z,6.426392
2019-03-30T03:30:32.430Z,6.456604
2019-03-30T03:31:32.532Z,6.486816
2019-03-30T03:32:32.874Z,6.486816
2019-03-30T03:33:32.806Z,6.517029
2019-03-30T03:34:32.856Z,6.5271
2019-03-30T03:35:32.911Z,6.587524
2019-03-30T03:36:32.962Z,6.597595
2019-03-30T03:37:44.394Z,6.597595
2019-03-30T03:38:34.153Z,6.567383
2019-03-30T03:39:33.256Z,6.557312
2019-03-30T03:40:33.378Z,6.53717
2019-03-30T03:41:33.471Z,6.496887
2019-03-30T03:42:34.632Z,6.466675
2019-03-30T03:43:33.715Z,6.40625
2019-03-30T03:44:33.770Z,6.376038
2019-03-30T03:45:33.872Z,6.345825
2019-03-30T03:46:33.864Z,6.305542
2019-03-30T03:47:34.028Z,6.27533
2019-03-30T03:48:34.124Z,6.255188
2019-03-30T03:49:34.241Z,6.204834
2019-03-30T03:50:34.350Z,6.194763
2019-03-30T03:51:34.474Z,6.174622
2019-03-30T03:52:34.489Z,6.15448
2019-03-30T03:53:34.602Z,6.15448
2019-03-30T03:54:34.730Z,6.124268
2019-03-30T03:55:34.850Z,6.073914
2019-03-30T03:56:34.970Z,6.053772
2019-03-30T03:57:35.113Z,6.02356
2019-03-30T03:58:35.186Z,5.993347
2019-03-30T03:59:35.293Z,5.983276
2019-03-30T04:00:35.402Z,5.953064
2019-03-30T04:01:35.433Z,5.922852
2019-03-30T04:02:35.578Z,5.912781
2019-03-30T04:03:35.707Z,5.882568
2019-03-30T04:04:35.716Z,5.842285
2019-03-30T04:05:35.805Z,5.832214
2019-03-30T04:06:35.906Z,5.802002
2019-03-30T04:07:36.081Z,5.812073
2019-03-30T04:08:36.166Z,5.791931
2019-03-30T04:09:36.243Z,5.761719
2019-03-30T04:10:36.360Z,5.741577
2019-03-30T04:11:36.460Z,5.731506
2019-03-30T04:12:36.470Z,5.721436
2019-03-30T04:13:36.482Z,5.721436
2019-03-30T04:14:36.641Z,5.671082
2019-03-30T04:15:36.739Z,5.65094
2019-03-30T04:16:36.852Z,5.610657
2019-03-30T04:17:36.991Z,5.590515
2019-03-30T04:18:36.964Z,5.580444
2019-03-30T04:19:37.104Z,5.560303
2019-03-30T04:20:37.106Z,5.560303
2019-03-30T04:21:43.987Z,5.550232
2019-03-30T04:22:37.334Z,5.550232
2019-03-30T04:23:37.450Z,5.540161
2019-03-30T04:24:38.561Z,5.52002
2019-03-30T04:25:37.562Z,5.509949
2019-03-30T04:26:37.654Z,5.489807
2019-03-30T04:27:37.821Z,5.469666
2019-03-30T04:28:37.782Z,5.459595
2019-03-30T04:29:37.878Z,5.459595
2019-03-30T04:30:37.982Z,5.429382
2019-03-30T04:31:38.023Z,5.409241
2019-03-30T04:32:39.030Z,5.409241
2019-03-30T04:33:37.997Z,5.379028
2019-03-30T04:34:38.101Z,5.358887
2019-03-30T04:35:38.197Z,5.338745
2019-03-30T04:36:38.243Z,5.328674
2019-03-30T04:37:38.366Z,5.288391
2019-03-30T04:38:38.477Z,5.308533
2019-03-30T04:39:38.589Z,5.308533
2019-03-30T04:40:38.690Z,5.288391
2019-03-30T04:41:38.819Z,5.27832
2019-03-30T04:42:38.848Z,5.248108
2019-03-30T04:43:38.981Z,5.248108
2019-03-30T04:44:39.111Z,5.217896
2019-03-30T04:45:39.219Z,5.227966
2019-03-30T04:46:39.333Z,5.217896
2019-03-30T04:47:39.463Z,5.197754
2019-03-30T04:48:39.574Z,5.217896
2019-03-30T04:49:39.675Z,5.177612
2019-03-30T04:50:39.782Z,5.177612
2019-03-30T04:51:39.879Z,5.177612
2019-03-30T04:52:40.967Z,5.177612
2019-03-30T04:53:40.076Z,5.157471
2019-03-30T04:54:40.203Z,5.157471
2019-03-30T04:55:40.310Z,5.1474
2019-03-30T04:56:40.442Z,5.127258
2019-03-30T04:57:40.576Z,5.127258
2019-03-30T04:58:40.680Z,5.127258
2019-03-30T04:59:40.833Z,5.127258
2019-03-30T05:00:40.953Z,5.117188
2019-03-30T05:01:41.050Z,5.117188
2019-03-30T05:02:41.175Z,5.117188
2019-03-30T05:03:41.299Z,5.117188
2019-03-30T05:04:41.425Z,5.117188
2019-03-30T05:05:43.152Z,5.117188
2019-03-30T05:06:41.659Z,5.097046
2019-03-30T05:07:41.789Z,5.097046
2019-03-30T05:08:41.907Z,5.117188
2019-03-30T05:09:42.046Z,5.097046
2019-03-30T05:10:42.164Z,5.117188
2019-03-30T05:11:42.272Z,5.117188
2019-03-30T05:12:42.412Z,5.097046
2019-03-30T05:13:42.431Z,5.097046
2019-03-30T05:14:42.573Z,5.117188
2019-03-30T05:15:42.726Z,5.097046
2019-03-30T05:16:42.871Z,5.097046
2019-03-30T05:17:47.183Z,5.076904
2019-03-30T05:18:42.855Z,5.066833
2019-03-30T05:19:43.014Z,5.097046
2019-03-30T05:20:43.016Z,5.097046
2019-03-30T05:21:43.091Z,5.097046
2019-03-30T05:22:43.237Z,5.076904
2019-03-30T05:23:43.272Z,5.097046
2019-03-30T05:24:43.330Z,5.097046
2019-03-30T05:25:43.403Z,5.097046
2019-03-30T05:26:43.499Z,5.097046
2019-03-30T05:27:43.689Z,5.097046
2019-03-30T05:28:43.740Z,5.097046
2019-03-30T05:29:43.793Z,5.097046
2019-03-30T05:30:43.871Z,5.117188
2019-03-30T05:31:43.924Z,5.117188
2019-03-30T05:32:44.002Z,5.097046
2019-03-30T05:33:45.044Z,5.117188
2019-03-30T05:34:44.078Z,5.127258
2019-03-30T05:35:44.120Z,5.127258
2019-03-30T05:36:44.182Z,5.1474
2019-03-30T05:37:44.254Z,5.177612
2019-03-30T05:38:44.325Z,5.177612
2019-03-30T05:39:44.382Z,5.197754
2019-03-30T05:40:44.433Z,5.197754
2019-03-30T05:41:44.518Z,5.227966
2019-03-30T05:42:44.584Z,5.227966
2019-03-30T05:43:44.650Z,5.227966
2019-03-30T05:44:44.717Z,5.227966
2019-03-30T05:45:44.775Z,5.217896
2019-03-30T05:46:44.835Z,5.227966
2019-03-30T05:47:44.909Z,5.248108
2019-03-30T05:48:44.952Z,5.258179
2019-03-30T05:49:45.082Z,5.258179
2019-03-30T05:50:45.145Z,5.27832
2019-03-30T05:51:45.195Z,5.27832
2019-03-30T05:52:45.261Z,5.27832
2019-03-30T05:53:45.331Z,5.288391
2019-03-30T05:54:45.409Z,5.288391
2019-03-30T05:55:45.500Z,5.328674
2019-03-30T05:56:45.561Z,5.328674
2019-03-30T05:57:45.648Z,5.338745
2019-03-30T05:58:45.704Z,5.358887
2019-03-30T05:59:45.743Z,5.379028
2019-03-30T06:00:45.782Z,5.409241
2019-03-30T06:01:45.827Z,5.429382
2019-03-30T06:02:45.887Z,5.439453
2019-03-30T06:03:45.942Z,5.439453
2019-03-30T06:04:45.988Z,5.459595
2019-03-30T06:05:46.057Z,5.489807
2019-03-30T06:06:46.128Z,5.509949
2019-03-30T06:07:46.266Z,5.540161
2019-03-30T06:08:46.344Z,5.580444
2019-03-30T06:09:46.404Z,5.610657
2019-03-30T06:10:46.480Z,5.620728
2019-03-30T06:11:46.539Z,5.65094
2019-03-30T06:12:46.619Z,5.691223
2019-03-30T06:13:46.672Z,5.701294
2019-03-30T06:14:46.759Z,5.731506
2019-03-30T06:15:46.798Z,5.761719
2019-03-30T06:16:46.859Z,5.77179
2019-03-30T06:17:46.943Z,5.812073
2019-03-30T06:18:46.991Z,5.832214
2019-03-30T06:19:47.034Z,5.882568
2019-03-30T06:20:47.157Z,5.922852
2019-03-30T06:21:47.210Z,5.942993
2019-03-30T06:22:47.334Z,5.973206
2019-03-30T06:23:48.679Z,5.983276
2019-03-30T06:24:47.475Z,6.013489
2019-03-30T06:25:47.527Z,6.063843
2019-03-30T06:26:47.601Z,6.094055
2019-03-30T06:27:47.681Z,6.134338
2019-03-30T06:28:47.782Z,6.164551
2019-03-30T06:29:47.847Z,6.204834
2019-03-30T06:30:47.885Z,6.245117
2019-03-30T06:31:47.937Z,6.305542
2019-03-30T06:32:47.985Z,6.345825
2019-03-30T06:33:48.095Z,6.386108
2019-03-30T06:34:48.151Z,6.426392
2019-03-30T06:35:48.185Z,6.486816
2019-03-30T06:36:48.248Z,6.517029
2019-03-30T06:37:48.303Z,6.557312
2019-03-30T06:38:48.376Z,6.597595
2019-03-30T06:39:48.428Z,6.678162
2019-03-30T06:40:48.481Z,6.718445
2019-03-30T06:41:48.532Z,6.768799
2019-03-30T06:42:48.574Z,6.799011
2019-03-30T06:43:48.679Z,6.849365
2019-03-30T06:44:48.726Z,6.919861
2019-03-30T06:45:48.783Z,6.970215
2019-03-30T06:46:48.845Z,7.03064
2019-03-30T06:47:48.828Z,7.070923
2019-03-30T06:48:48.910Z,7.111206
2019-03-30T06:49:48.948Z,7.141418
2019-03-30T06:50:48.990Z,7.211914
2019-03-30T06:51:49.038Z,7.252197
2019-03-30T06:52:57.257Z,7.28241
2019-03-30T06:53:49.089Z,7.322693
2019-03-30T06:54:49.137Z,7.373047
2019-03-30T06:55:49.205Z,7.41333
2019-03-30T06:56:49.265Z,7.443542
2019-03-30T06:57:49.362Z,7.473755
2019-03-30T06:58:49.457Z,7.514038
2019-03-30T06:59:49.525Z,7.584534
2019-03-30T07:00:49.570Z,7.644958
2019-03-30T07:01:49.641Z,7.685242
2019-03-30T07:02:49.684Z,7.735596
2019-03-30T07:03:49.777Z,7.796021
2019-03-30T07:04:49.832Z,7.836304
2019-03-30T07:05:49.881Z,7.876587
2019-03-30T07:06:49.969Z,7.947083
2019-03-30T07:07:50.008Z,8.017578
2019-03-30T07:08:50.127Z,8.057861
2019-03-30T07:09:50.184Z,8.138428
2019-03-30T07:10:50.257Z,8.198853
2019-03-30T07:11:50.328Z,8.239136
2019-03-30T07:12:50.394Z,8.309631
2019-03-30T07:13:50.485Z,8.359985
2019-03-30T07:14:50.538Z,8.390198
2019-03-30T07:15:50.628Z,8.440552
2019-03-30T07:16:50.680Z,8.500977
2019-03-30T07:17:50.739Z,8.54126
2019-03-30T07:18:50.818Z,8.591614
2019-03-30T07:19:50.914Z,8.641968
2019-03-30T07:20:50.961Z,8.692322
2019-03-30T07:21:51.014Z,8.722534
2019-03-30T07:22:51.312Z,8.782959
2019-03-30T07:23:52.114Z,8.843384
2019-03-30T07:24:51.157Z,8.903809
2019-03-30T07:25:51.240Z,8.954163
2019-03-30T07:26:51.289Z,9.004517
2019-03-30T07:27:51.353Z,9.085083
2019-03-30T07:28:51.436Z,9.125366
2019-03-30T07:29:51.496Z,9.185791
2019-03-30T07:30:52.534Z,9.236145
2019-03-30T07:31:51.571Z,9.29657
2019-03-30T07:32:51.638Z,9.356995
2019-03-30T07:33:51.704Z,9.417419
2019-03-30T07:34:51.782Z,9.447632
2019-03-30T07:35:51.868Z,9.518127
2019-03-30T07:36:51.944Z,9.588623
2019-03-30T07:37:52.008Z,9.669189
2019-03-30T07:38:52.080Z,9.739685
2019-03-30T07:39:52.164Z,9.820251
2019-03-30T07:40:52.256Z,9.900818
2019-03-30T07:41:52.329Z,9.941101
2019-03-30T07:42:52.397Z,10.001526
2019-03-30T07:43:52.471Z,10.072021
2019-03-30T07:44:52.541Z,10.172729
2019-03-30T07:45:52.623Z,10.253296
2019-03-30T07:46:52.714Z,10.343933
2019-03-30T07:47:52.726Z,10.454712
2019-03-30T07:48:52.828Z,10.565491
2019-03-30T07:49:52.897Z,10.635986
2019-03-30T07:50:52.991Z,10.706482
2019-03-30T07:51:53.076Z,10.766907
2019-03-30T07:52:53.139Z,10.857544
2019-03-30T07:53:53.221Z,10.968323
2019-03-30T07:54:53.357Z,11.048889
2019-03-30T07:56:07.310Z,11.119385
2019-03-30T07:57:04.448Z,11.129456
2019-03-30T07:57:54.468Z,11.17981
2019-03-30T07:58:53.496Z,11.220093
2019-03-30T07:59:53.547Z,11.220093
2019-03-30T08:00:53.594Z,11.250305
2019-03-30T08:01:53.658Z,11.31073
2019-03-30T08:02:53.713Z,11.401367
2019-03-30T08:03:53.804Z,11.5625
2019-03-30T08:04:53.845Z,11.773987
2019-03-30T08:05:54.435Z,11.884766
2019-03-30T08:06:53.938Z,11.914978
2019-03-30T08:07:53.986Z,11.955261
2019-03-30T08:08:54.091Z,11.965332
2019-03-30T08:09:54.147Z,11.985474
2019-03-30T08:10:54.205Z,12.025757
2019-03-30T08:11:54.266Z,12.076111
2019-03-30T08:12:54.340Z,12.247314
2019-03-30T08:13:54.618Z,12.348022
2019-03-30T08:14:54.505Z,12.44873
2019-03-30T08:15:54.608Z,12.579651
2019-03-30T08:16:54.651Z,12.69043
2019-03-30T08:17:54.757Z,12.781067
2019-03-30T08:18:54.948Z,12.911987
2019-03-30T08:19:54.941Z,13.536377
2019-03-30T08:20:55.015Z,14.744873
2019-03-30T08:21:56.038Z,15.913086
2019-03-30T08:22:55.043Z,16.980591
2019-03-30T08:23:56.176Z,17.715759
2019-03-30T08:24:55.264Z,17.927246
2019-03-30T08:25:55.292Z,18.309937
2019-03-30T08:26:55.331Z,18.914185
2019-03-30T08:27:55.353Z,19.518433
2019-03-30T08:28:55.407Z,20.455017
2019-03-30T08:29:55.398Z,21.321106
2019-03-30T08:30:56.493Z,21.331177
2019-03-30T08:31:55.428Z,21.512451
2019-03-30T08:32:55.469Z,22.00592
2019-03-30T08:33:55.518Z,22.358398
2019-03-30T08:34:55.573Z,22.308044
2019-03-30T08:35:55.631Z,22.469177
2019-03-30T08:36:59.030Z,22.036133
2019-03-30T08:37:55.740Z,21.935425
2019-03-30T08:38:55.758Z,21.683655
2019-03-30T08:39:55.866Z,21.280823
2019-03-30T08:40:55.910Z,21.149902
2019-03-30T08:41:55.913Z,21.562805
2019-03-30T08:42:55.949Z,21.955566
2019-03-30T08:43:55.994Z,21.965637
2019-03-30T08:44:56.073Z,21.593018
2019-03-30T08:45:56.092Z,21.099548
2019-03-30T08:46:56.132Z,20.334167
2019-03-30T08:47:56.185Z,19.961548
2019-03-30T08:48:56.197Z,19.548645
2019-03-30T08:49:56.269Z,19.468079
2019-03-30T08:50:56.347Z,19.296875
2019-03-30T08:51:56.377Z,19.226379
2019-03-30T08:52:56.410Z,18.974609
2019-03-30T08:53:56.456Z,19.256592
2019-03-30T08:54:56.541Z,19.296875
2019-03-30T08:55:56.578Z,19.548645
2019-03-30T08:56:56.616Z,19.407654
2019-03-30T08:57:57.741Z,19.145813
2019-03-30T08:58:56.833Z,18.85376
2019-03-30T08:59:56.942Z,18.914185
2019-03-30T09:00:56.949Z,18.85376
2019-03-30T09:01:57.006Z,18.833618
2019-03-30T09:02:57.072Z,18.712769
2019-03-30T09:03:57.135Z,18.551636
2019-03-30T09:04:57.221Z,18.108521
2019-03-30T09:05:57.241Z,17.876892
2019-03-30T09:06:57.256Z,17.897034
2019-03-30T09:07:57.252Z,18.118591
2019-03-30T09:08:57.380Z,18.22937
2019-03-30T09:09:57.460Z,18.712769
2019-03-30T09:10:57.478Z,18.883972
2019-03-30T09:11:57.486Z,19.286804
2019-03-30T09:12:57.516Z,19.478149
2019-03-30T09:13:58.541Z,19.870911
2019-03-30T09:14:57.718Z,20.334167
2019-03-30T09:15:57.748Z,20.585938
2019-03-30T09:16:57.776Z,20.455017
2019-03-30T09:17:57.929Z,20.696716
2019-03-30T09:18:57.959Z,20.555725
2019-03-30T09:19:58.023Z,20.555725
2019-03-30T09:20:58.060Z,20.4953
2019-03-30T09:21:58.077Z,20.666504
2019-03-30T09:22:58.102Z,20.585938
2019-03-30T09:24:08.711Z,20.394592
2019-03-30T09:24:58.295Z,20.485229
2019-03-30T09:25:58.365Z,20.585938
2019-03-30T09:26:58.409Z,20.767212
2019-03-30T09:27:58.421Z,20.696716
2019-03-30T09:28:58.477Z,20.666504
2019-03-30T09:29:58.505Z,20.767212
2019-03-30T09:30:58.551Z,20.626221
2019-03-30T09:32:13.183Z,20.978699
2019-03-30T09:32:59.685Z,21.139832
2019-03-30T09:33:58.693Z,21.25061
2019-03-30T09:34:58.759Z,21.37146
2019-03-30T09:35:58.805Z,21.542664
2019-03-30T09:36:58.917Z,21.633301
2019-03-30T09:37:59.002Z,21.452026
2019-03-30T09:39:00.081Z,21.290894
2019-03-30T09:39:59.111Z,21.37146
2019-03-30T09:40:59.122Z,21.190186
2019-03-30T09:41:59.175Z,20.696716
2019-03-30T09:42:59.215Z,20.4953
2019-03-30T09:43:59.239Z,20.485229
2019-03-30T09:44:59.299Z,20.525513
2019-03-30T09:46:00.369Z,20.475159
2019-03-30T09:46:59.394Z,20.223389
2019-03-30T09:47:59.452Z,20.042114
2019-03-30T09:48:59.608Z,19.780273
2019-03-30T09:50:02.354Z,19.780273
2019-03-30T09:50:59.741Z,20.223389
2019-03-30T09:51:59.856Z,20.857849
2019-03-30T09:53:00.014Z,21.300964
2019-03-30T09:54:00.057Z,21.582947
2019-03-30T09:55:01.148Z,21.50238
2019-03-30T09:56:00.179Z,21.663513
2019-03-30T09:57:00.202Z,22.066345
2019-03-30T09:58:00.265Z,22.368469
2019-03-30T09:59:00.304Z,22.358398
2019-03-30T10:00:00.460Z,22.277832
2019-03-30T10:01:00.513Z,22.308044
2019-03-30T10:02:00.607Z,22.066345
2019-03-30T10:03:00.616Z,21.653442
2019-03-30T10:04:00.658Z,21.331177
2019-03-30T10:05:00.700Z,21.37146
2019-03-30T10:06:00.745Z,21.452026
2019-03-30T10:07:00.837Z,21.562805
2019-03-30T10:08:00.894Z,21.532593
2019-03-30T10:09:00.968Z,21.653442
2019-03-30T10:10:01.009Z,21.482239
2019-03-30T10:11:01.094Z,20.928345
2019-03-30T10:12:01.237Z,20.24353
2019-03-30T10:13:01.277Z,20.152893
2019-03-30T10:14:01.391Z,20.021973
2019-03-30T10:15:01.455Z,19.639282
2019-03-30T10:16:01.468Z,19.750061
2019-03-30T10:17:01.591Z,20.102539
2019-03-30T10:18:01.571Z,19.770203
2019-03-30T10:19:01.638Z,19.619141
2019-03-30T10:20:04.449Z,19.286804
2019-03-30T10:21:01.934Z,19.186096
2019-03-30T10:22:01.993Z,19.337158
2019-03-30T10:23:01.984Z,19.286804
2019-03-30T10:24:02.025Z,19.347229
2019-03-30T10:25:02.038Z,19.478149
2019-03-30T10:26:02.163Z,19.840698
2019-03-30T10:27:02.226Z,20.223389
2019-03-30T10:28:02.273Z,20.575867
2019-03-30T10:29:02.375Z,20.74707
2019-03-30T10:30:02.480Z,20.918274
2019-03-30T10:31:02.608Z,20.898132
2019-03-30T10:32:02.590Z,20.777283
2019-03-30T10:33:02.759Z,20.767212
2019-03-30T10:34:02.888Z,20.978699
2019-03-30T10:35:02.930Z,21.280823
2019-03-30T10:36:03.039Z,21.441956
2019-03-30T10:37:03.065Z,21.804504
2019-03-30T10:38:03.114Z,22.116699
2019-03-30T10:39:03.282Z,21.915283
2019-03-30T10:40:03.331Z,21.62323
2019-03-30T10:41:03.442Z,21.985779
2019-03-30T10:42:03.472Z,22.338257
2019-03-30T10:43:03.590Z,22.489319
2019-03-30T10:44:03.583Z,22.076416
2019-03-30T10:45:03.594Z,22.116699
2019-03-30T10:46:03.658Z,22.116699
2019-03-30T10:47:03.798Z,21.774292
2019-03-30T10:48:03.953Z,21.774292
2019-03-30T10:49:03.949Z,21.633301
2019-03-30T10:50:04.073Z,21.653442
2019-03-30T10:51:04.133Z,21.441956
2019-03-30T10:52:04.145Z,21.562805
2019-03-30T10:53:04.312Z,21.441956
2019-03-30T10:54:04.325Z,21.321106
2019-03-30T10:55:04.464Z,21.482239
2019-03-30T10:56:04.485Z,21.703796
2019-03-30T10:57:04.602Z,21.99585
2019-03-30T10:58:04.628Z,21.723938
2019-03-30T10:59:04.771Z,21.844788
2019-03-30T11:00:04.804Z,22.308044
2019-03-30T11:01:04.975Z,22.24762
2019-03-30T11:02:05.085Z,22.398682
2019-03-30T11:03:05.217Z,22.308044
2019-03-30T11:04:05.270Z,21.593018
2019-03-30T11:05:05.289Z,21.593018
2019-03-30T11:06:05.453Z,22.036133
2019-03-30T11:07:05.570Z,21.653442
2019-03-30T11:08:05.608Z,21.593018
2019-03-30T11:09:05.617Z,21.472168
2019-03-30T11:10:05.655Z,21.441956
2019-03-30T11:11:05.687Z,21.099548
2019-03-30T11:12:05.731Z,21.411743
2019-03-30T11:13:05.865Z,21.75415
2019-03-30T11:14:05.862Z,21.965637
2019-03-30T11:15:05.859Z,21.703796
2019-03-30T11:16:05.898Z,21.965637
2019-03-30T11:17:06.052Z,21.804504
2019-03-30T11:18:06.212Z,21.703796
2019-03-30T11:19:06.248Z,21.814575
2019-03-30T11:20:06.399Z,21.62323
2019-03-30T11:21:06.442Z,21.985779
2019-03-30T11:22:06.631Z,22.469177
2019-03-30T11:23:06.613Z,21.935425
2019-03-30T11:24:07.007Z,22.056274
2019-03-30T11:25:08.426Z,21.62323
2019-03-30T11:26:06.985Z,21.62323
2019-03-30T11:27:06.974Z,21.683655
2019-03-30T11:28:06.979Z,21.915283
2019-03-30T11:29:07.129Z,21.844788
2019-03-30T11:30:07.280Z,21.62323
2019-03-30T11:31:07.331Z,21.804504
2019-03-30T11:32:07.340Z,22.066345
2019-03-30T11:33:07.396Z,21.985779
2019-03-30T11:34:07.409Z,22.187195
2019-03-30T11:35:07.422Z,22.469177
2019-03-30T11:36:07.434Z,22.328186
2019-03-30T11:37:07.408Z,22.428894
2019-03-30T11:38:07.419Z,22.519531
2019-03-30T11:39:07.495Z,22.962646
2019-03-30T11:40:07.467Z,23.083496